Time;durP1;ratioP1;P1;durP2;ratioP2;P2;SDS_P1;SDS_P2;PMS_P1;PMS_P2;Temp;Humidity;BMP_temperature;BMP_pressure;BME280_temperature;BME280_humidity;BME280_pressure;Samples;Min_cycle;Max_cycle;Signal;HPM_P1;HPM_P2
2023/03/07 00:01:02;;;;;;;25.13;9.73;;;3.20;99.90;;;;;;5081161;28;20041;-84
2023/03/07 00:03:28;;;;;;;23.75;9.98;;;3.20;99.90;;;;;;5073727;28;20059;-84
2023/03/07 00:06:01;;;;;;;22.23;9.02;;;3.20;99.90;;;;;;5074020;28;20523;-85
2023/03/07 00:08:27;;;;;;;21.25;8.60;;;3.30;99.90;;;;;;5055573;28;20047;-85
2023/03/07 00:10:52;;;;;;;19.13;7.82;;;3.30;99.90;;;;;;5046744;28;20040;-85
2023/03/07 00:13:18;;;;;;;18.33;7.57;;;3.20;99.90;;;;;;5049476;28;20052;-84
2023/03/07 00:15:44;;;;;;;23.13;8.63;;;3.30;99.90;;;;;;5066127;28;20056;-86
2023/03/07 00:18:09;;;;;;;18.25;7.03;;;3.30;99.90;;;;;;5056970;28;20086;-85
2023/03/07 00:20:35;;;;;;;13.52;4.78;;;3.30;99.90;;;;;;5047157;28;20056;-85
2023/03/07 00:23:01;;;;;;;15.57;6.35;;;3.30;99.90;;;;;;5050070;28;20083;-84
2023/03/07 00:25:26;;;;;;;13.07;4.93;;;3.30;99.90;;;;;;5076254;28;20503;-85
2023/03/07 00:27:52;;;;;;;13.88;4.75;;;3.30;99.90;;;;;;5046360;28;20090;-84
2023/03/07 00:30:17;;;;;;;13.65;4.20;;;3.40;99.90;;;;;;5053595;28;20047;-83
2023/03/07 00:32:43;;;;;;;10.60;4.47;;;3.40;99.90;;;;;;5068433;28;20048;-81
2023/03/07 00:35:09;;;;;;;7.85;3.30;;;3.40;99.90;;;;;;5035128;28;20063;-82
2023/03/07 00:37:35;;;;;;;6.43;3.47;;;3.50;99.90;;;;;;5066597;28;20036;-83
2023/03/07 00:40:00;;;;;;;7.35;2.85;;;3.50;99.90;;;;;;5045259;28;20928;-83
2023/03/07 00:42:26;;;;;;;4.32;2.00;;;3.40;99.90;;;;;;5056834;28;20086;-83
2023/03/07 00:44:51;;;;;;;6.72;2.10;;;3.40;99.90;;;;;;5019188;28;20048;-84
2023/03/07 00:47:17;;;;;;;5.65;1.58;;;3.30;99.90;;;;;;5061418;28;20041;-84
2023/03/07 00:49:43;;;;;;;2.08;1.20;;;3.20;99.90;;;;;;5056440;28;20041;-85
2023/03/07 00:52:08;;;;;;;4.97;1.23;;;3.10;99.90;;;;;;5049223;28;20048;-85
2023/03/07 00:54:34;;;;;;;3.40;1.10;;;3.00;99.90;;;;;;5065953;28;20045;-86
2023/03/07 00:57:00;;;;;;;4.18;0.90;;;2.90;99.90;;;;;;5064766;28;20044;-85
2023/03/07 00:59:26;;;;;;;4.00;1.02;;;2.90;99.90;;;;;;5064513;28;20048;-85
2023/03/07 01:01:51;;;;;;;2.90;1.02;;;2.80;99.90;;;;;;5040356;28;20041;-84
2023/03/07 01:04:17;;;;;;;1.77;0.95;;;2.80;99.90;;;;;;5051001;28;20044;-84
2023/03/07 01:06:43;;;;;;;2.53;1.27;;;2.80;99.90;;;;;;5033300;28;20037;-86
2023/03/07 01:09:09;;;;;;;4.15;1.35;;;2.80;99.90;;;;;;5047516;28;20222;-85
2023/03/07 01:11:36;;;;;;;5.00;1.33;;;2.80;99.90;;;;;;5039843;28;20482;-86
2023/03/07 01:14:04;;;;;;;4.90;1.35;;;3.00;99.90;;;;;;5054556;28;20886;-86
2023/03/07 01:16:35;;;;;;;4.40;0.98;;;3.00;99.90;;;;;;5050595;28;20167;-84
2023/03/07 01:19:05;;;;;;;6.63;1.95;;;3.10;99.90;;;;;;5059016;28;20524;-84
2023/03/07 01:21:36;;;;;;;8.10;1.40;;;3.10;99.90;;;;;;5050473;28;20067;-84
2023/03/07 01:24:06;;;;;;;5.13;1.30;;;3.20;99.90;;;;;;5049234;28;20135;-84
2023/03/07 01:26:33;;;;;;;5.07;0.93;;;3.10;99.90;;;;;;5034521;28;20051;-84
2023/03/07 01:29:00;;;;;;;7.95;1.25;;;3.10;99.90;;;;;;5050822;28;20641;-85
2023/03/07 01:31:28;;;;;;;9.30;2.25;;;3.20;99.90;;;;;;5081612;28;20047;-84
2023/03/07 01:33:54;;;;;;;3.90;1.30;;;3.10;99.90;;;;;;5043638;28;20397;-84
2023/03/07 01:36:29;;;;;;;6.25;1.40;;;3.10;99.90;;;;;;5070874;28;20059;-84
2023/03/07 01:38:57;;;;;;;3.20;1.05;;;3.10;99.90;;;;;;5048831;28;20060;-85
2023/03/07 01:41:24;;;;;;;7.03;1.20;;;3.10;99.90;;;;;;5063376;28;20082;-85
2023/03/07 01:43:50;;;;;;;4.85;1.38;;;3.10;99.90;;;;;;5051772;28;20413;-84
2023/03/07 01:46:24;;;;;;;6.07;1.27;;;3.10;99.90;;;;;;5053373;28;20393;-84
2023/03/07 01:49:02;;;;;;;8.95;1.55;;;3.10;99.90;;;;;;5066913;28;20493;-87
2023/03/07 01:51:28;;;;;;;4.93;1.40;;;3.00;99.90;;;;;;5075166;28;20039;-84
2023/03/07 01:53:56;;;;;;;6.57;1.10;;;3.00;99.90;;;;;;5044342;28;20055;-85
2023/03/07 01:56:21;;;;;;;6.25;1.50;;;3.00;99.90;;;;;;5041824;28;20048;-85
2023/03/07 01:58:48;;;;;;;3.70;1.30;;;2.90;99.90;;;;;;5053181;28;20105;-86
2023/03/07 02:01:15;;;;;;;6.25;1.20;;;2.80;99.90;;;;;;5048633;28;20048;-85
2023/03/07 02:03:56;;;;;;;2.70;1.30;;;2.80;99.90;;;;;;5049635;28;20045;-85
2023/03/07 02:06:23;;;;;;;8.02;2.50;;;2.80;99.90;;;;;;5050413;28;20398;-85
2023/03/07 02:08:51;;;;;;;5.90;2.25;;;2.90;99.90;;;;;;5047056;28;20040;-85
2023/03/07 02:11:17;;;;;;;11.43;1.58;;;2.90;99.90;;;;;;5068986;28;20127;-84
2023/03/07 02:13:43;;;;;;;9.05;1.40;;;3.00;99.90;;;;;;5050069;28;20187;-85
2023/03/07 02:16:09;;;;;;;4.30;1.48;;;3.00;99.90;;;;;;5052804;28;20049;-85
2023/03/07 02:18:41;;;;;;;4.75;1.45;;;2.90;99.90;;;;;;5051233;28;20067;-84
2023/03/07 02:21:17;;;;;;;8.27;1.92;;;3.00;99.90;;;;;;5069598;28;20047;-85
2023/03/07 02:24:06;;;;;;;13.45;2.50;;;3.00;99.90;;;;;;5056198;28;20383;-85
2023/03/07 02:26:45;;;;;;;7.60;1.13;;;3.10;99.90;;;;;;5057070;28;20041;-86
2023/03/07 02:29:13;;;;;;;10.50;1.35;;;3.00;99.90;;;;;;5047295;28;20052;-85
2023/03/07 02:31:40;;;;;;;7.47;1.25;;;3.10;99.90;;;;;;5034455;28;20053;-85
2023/03/07 02:34:24;;;;;;;7.40;1.23;;;3.00;99.90;;;;;;5051530;28;20094;-84
2023/03/07 02:37:04;;;;;;;8.57;1.38;;;3.00;99.90;;;;;;5052933;28;20110;-84
2023/03/07 02:39:30;;;;;;;8.98;2.25;;;2.90;99.90;;;;;;5066526;28;20053;-84
2023/03/07 02:42:02;;;;;;;7.93;2.20;;;2.80;99.90;;;;;;5055812;28;20051;-86
2023/03/07 02:44:27;;;;;;;9.88;1.98;;;2.80;99.90;;;;;;5066338;28;20045;-85
2023/03/07 02:46:53;;;;;;;7.20;1.55;;;2.70;99.90;;;;;;5066927;28;20051;-85
2023/03/07 02:49:18;;;;;;;10.80;1.70;;;2.70;99.90;;;;;;5035507;28;20109;-84
2023/03/07 02:51:44;;;;;;;9.15;1.80;;;2.60;99.90;;;;;;5015296;28;20698;-85
2023/03/07 02:54:10;;;;;;;10.82;1.60;;;2.60;99.90;;;;;;5051166;28;20405;-85
2023/03/07 02:56:36;;;;;;;12.88;1.58;;;2.50;99.90;;;;;;5052165;28;20045;-84
2023/03/07 02:59:01;;;;;;;8.57;1.45;;;2.40;99.90;;;;;;5067433;28;20040;-84
2023/03/07 03:01:27;;;;;;;9.95;1.40;;;2.50;99.90;;;;;;5066607;28;20088;-84
2023/03/07 03:03:53;;;;;;;8.48;1.48;;;2.50;99.90;;;;;;5039391;28;20045;-85
2023/03/07 03:06:18;;;;;;;14.98;1.65;;;2.40;99.90;;;;;;5067576;28;20560;-84
2023/03/07 03:08:44;;;;;;;7.78;1.20;;;2.40;99.90;;;;;;5070820;28;20047;-84
2023/03/07 03:11:10;;;;;;;9.20;1.73;;;2.30;99.90;;;;;;5048667;28;20060;-84
2023/03/07 03:13:35;;;;;;;9.32;1.30;;;2.30;99.90;;;;;;5053033;28;20087;-85
2023/03/07 03:16:02;;;;;;;11.98;1.88;;;2.30;99.90;;;;;;5036177;28;20072;-85
2023/03/07 03:18:29;;;;;;;14.73;1.40;;;2.20;99.90;;;;;;5045962;28;20057;-84
2023/03/07 03:20:55;;;;;;;14.45;1.52;;;2.30;99.90;;;;;;5050642;28;20044;-85
2023/03/07 03:23:21;;;;;;;11.70;2.53;;;2.30;99.90;;;;;;5056253;28;20465;-84
2023/03/07 03:25:57;;;;;;;11.35;1.65;;;2.20;99.90;;;;;;5049486;28;20037;-84
2023/03/07 03:28:22;;;;;;;;;;;2.20;99.90;;;;;;5058319;28;20045;-84
2023/03/07 03:31:06;;;;;;;10.03;1.33;;;2.10;99.90;;;;;;5051820;28;20042;-84
2023/03/07 03:33:32;;;;;;;10.02;1.42;;;2.10;99.90;;;;;;5064906;28;20098;-84
2023/03/07 03:35:59;;;;;;;11.52;1.65;;;2.10;99.90;;;;;;5049611;28;20036;-85
2023/03/07 03:38:25;;;;;;;12.15;1.33;;;2.10;99.90;;;;;;5057819;28;20051;-84
2023/03/07 03:40:51;;;;;;;12.77;1.55;;;2.10;99.90;;;;;;5058916;28;20051;-84
2023/03/07 03:43:17;;;;;;;6.93;1.05;;;2.00;99.90;;;;;;5055435;28;20044;-86
2023/03/07 03:45:43;;;;;;;13.95;1.75;;;2.00;99.90;;;;;;5065007;28;20045;-84
2023/03/07 03:48:09;;;;;;;18.90;2.00;;;2.00;99.90;;;;;;5049707;28;20068;-85
2023/03/07 03:50:35;;;;;;;12.95;1.35;;;2.00;99.90;;;;;;5045017;28;20045;-84
2023/03/07 03:53:01;;;;;;;12.30;1.70;;;1.90;99.90;;;;;;5043259;28;20044;-85
2023/03/07 03:55:27;;;;;;;15.18;2.50;;;2.00;99.90;;;;;;5064308;28;20037;-85
2023/03/07 03:57:53;;;;;;;14.35;1.05;;;1.90;99.90;;;;;;5055694;28;20044;-85
2023/03/07 04:00:19;;;;;;;14.75;1.35;;;1.90;99.90;;;;;;5033886;28;20049;-84
2023/03/07 04:02:45;;;;;;;10.90;1.00;;;1.90;99.90;;;;;;5051496;28;20080;-85
2023/03/07 04:05:11;;;;;;;13.75;1.30;;;1.80;99.90;;;;;;5048412;28;20052;-84
2023/03/07 04:07:37;;;;;;;11.90;1.30;;;1.80;99.90;;;;;;5051630;28;20048;-85
2023/03/07 04:10:04;;;;;;;7.80;1.25;;;1.80;99.90;;;;;;5064678;28;20406;-84
2023/03/07 04:12:30;;;;;;;9.68;1.15;;;1.70;99.90;;;;;;5064349;28;20202;-85
2023/03/07 04:14:56;;;;;;;7.60;1.02;;;1.70;99.90;;;;;;5059778;28;20037;-84
2023/03/07 04:17:21;;;;;;;6.30;1.00;;;1.70;99.90;;;;;;5048549;28;20822;-84
2023/03/07 04:19:47;;;;;;;9.25;1.08;;;1.70;99.90;;;;;;5042839;28;20053;-84
2023/03/07 04:22:13;;;;;;;12.23;1.20;;;1.70;99.90;;;;;;5034931;28;20055;-84
2023/03/07 04:24:38;;;;;;;12.93;1.20;;;1.60;99.90;;;;;;5038508;28;20505;-85
2023/03/07 04:27:05;;;;;;;13.77;1.30;;;1.60;99.90;;;;;;5039855;28;20053;-86
2023/03/07 04:29:31;;;;;;;6.93;1.20;;;1.60;99.90;;;;;;5063857;28;20218;-84
2023/03/07 04:31:56;;;;;;;7.32;1.48;;;1.50;99.90;;;;;;5050836;28;20477;-85
2023/03/07 04:34:22;;;;;;;14.20;1.48;;;1.60;99.90;;;;;;5017082;28;20053;-85
2023/03/07 04:36:47;;;;;;;16.33;2.00;;;1.60;99.90;;;;;;5038740;28;20171;-85
2023/03/07 04:39:13;;;;;;;9.02;1.35;;;1.70;99.90;;;;;;5051354;28;20519;-87
2023/03/07 04:41:39;;;;;;;9.43;1.00;;;1.60;99.90;;;;;;5035907;28;20056;-85
2023/03/07 04:44:05;;;;;;;9.93;1.10;;;1.60;99.90;;;;;;5016599;28;20417;-85
2023/03/07 04:46:30;;;;;;;10.35;1.20;;;1.60;99.90;;;;;;5049732;28;20052;-85
2023/03/07 04:48:56;;;;;;;6.50;1.33;;;1.60;99.90;;;;;;5053368;28;20096;-85
2023/03/07 04:51:22;;;;;;;16.05;1.58;;;1.60;99.90;;;;;;5056802;28;20051;-85
2023/03/07 04:53:48;;;;;;;10.32;1.00;;;1.60;99.90;;;;;;5059397;28;20037;-85
2023/03/07 04:56:16;;;;;;;10.93;1.33;;;1.70;99.90;;;;;;5058028;28;20201;-85
2023/03/07 04:58:43;;;;;;;6.13;1.17;;;1.60;99.90;;;;;;5064052;28;20052;-85
2023/03/07 05:01:09;;;;;;;14.65;1.25;;;1.70;99.90;;;;;;5046751;28;20059;-86
2023/03/07 05:03:35;;;;;;;7.28;1.05;;;1.80;99.90;;;;;;5057318;28;21040;-85
2023/03/07 05:06:06;;;;;;;9.52;1.20;;;1.70;99.90;;;;;;5045528;28;20127;-86
2023/03/07 05:08:32;;;;;;;10.27;1.33;;;1.70;99.90;;;;;;5056835;28;20036;-85
2023/03/07 05:10:58;;;;;;;11.02;1.10;;;1.80;99.90;;;;;;5037701;28;20493;-86
2023/03/07 05:13:23;;;;;;;9.23;1.00;;;1.90;99.90;;;;;;5051196;28;20048;-85
2023/03/07 05:15:54;;;;;;;14.07;1.58;;;1.80;99.90;;;;;;5058020;28;20708;-86
2023/03/07 05:18:21;;;;;;;6.97;0.85;;;1.80;99.90;;;;;;5046090;28;20075;-85
2023/03/07 05:20:47;;;;;;;10.27;1.73;;;1.80;99.90;;;;;;5043638;28;20147;-85
2023/03/07 05:23:12;;;;;;;9.00;1.20;;;1.80;99.90;;;;;;5047238;28;20371;-85
2023/03/07 05:25:38;;;;;;;6.00;1.90;;;1.70;99.90;;;;;;5070902;28;20097;-85
2023/03/07 05:28:04;;;;;;;7.25;1.23;;;1.70;99.90;;;;;;5051918;28;20513;-86
2023/03/07 05:30:29;;;;;;;14.27;1.70;;;1.80;99.90;;;;;;5035700;28;20095;-84
2023/03/07 05:32:55;;;;;;;10.57;1.15;;;1.80;99.90;;;;;;5041786;28;20041;-87
2023/03/07 05:35:23;;;;;;;11.55;1.60;;;1.80;99.90;;;;;;5067372;28;20071;-85
2023/03/07 05:37:50;;;;;;;8.80;1.70;;;1.80;99.90;;;;;;5033124;28;20131;-84
2023/03/07 05:40:17;;;;;;;13.30;1.45;;;1.80;99.90;;;;;;5046512;28;20048;-84
2023/03/07 05:42:43;;;;;;;4.80;0.90;;;1.90;99.90;;;;;;5058380;28;20040;-85
2023/03/07 05:45:10;;;;;;;5.55;1.38;;;1.80;99.90;;;;;;5042736;28;20048;-83
2023/03/07 05:47:36;;;;;;;8.25;1.25;;;1.80;99.90;;;;;;5042296;28;20040;-84
2023/03/07 05:50:02;;;;;;;8.15;1.20;;;1.80;98.90;;;;;;5059595;28;20096;-83
2023/03/07 05:52:28;;;;;;;8.60;1.33;;;1.90;98.30;;;;;;5029472;28;20052;-85
2023/03/07 05:54:54;;;;;;;13.45;1.88;;;1.80;99.90;;;;;;5045038;28;20047;-84
2023/03/07 05:57:21;;;;;;;9.60;1.33;;;1.90;97.50;;;;;;5060267;28;20068;-84
2023/03/07 05:59:47;;;;;;;7.70;2.72;;;1.90;96.50;;;;;;5080678;28;20048;-83
2023/03/07 06:02:13;;;;;;;9.32;1.13;;;1.90;95.00;;;;;;5056657;28;20122;-86
2023/03/07 06:04:39;;;;;;;11.90;1.23;;;1.90;91.30;;;;;;5068345;28;20049;-84
2023/03/07 06:07:04;;;;;;;11.00;1.10;;;2.00;64.50;;;;;;5031567;28;20065;-85
2023/03/07 06:09:30;;;;;;;9.80;1.63;;;1.90;75.10;;;;;;5041755;28;20422;-85
2023/03/07 06:11:56;;;;;;;7.70;1.45;;;2.00;84.70;;;;;;5057593;28;20033;-86
2023/03/07 06:14:21;;;;;;;8.45;1.75;;;2.00;57.30;;;;;;5073412;28;20062;-85
2023/03/07 06:16:47;;;;;;;19.10;2.92;;;2.10;58.70;;;;;;5040769;28;20127;-84
2023/03/07 06:19:16;;;;;;;10.52;1.83;;;2.00;49.90;;;;;;5058064;28;20056;-85
2023/03/07 06:21:42;;;;;;;14.70;1.65;;;2.10;56.60;;;;;;5027895;28;20059;-85
2023/03/07 06:24:08;;;;;;;14.48;1.85;;;2.10;44.80;;;;;;5051452;28;20833;-83
2023/03/07 06:26:34;;;;;;;14.70;1.20;;;2.20;22.10;;;;;;5049997;28;20088;-83
2023/03/07 06:29:00;;;;;;;5.05;1.15;;;2.20;40.60;;;;;;5051394;28;20057;-83
2023/03/07 06:31:26;;;;;;;13.07;1.85;;;2.20;26.00;;;;;;5035745;28;20071;-84
2023/03/07 06:33:51;;;;;;;8.43;2.10;;;2.30;20.50;;;;;;5062841;28;20075;-84
2023/03/07 06:36:19;;;;;;;10.60;1.80;;;2.30;9.10;;;;;;5052060;28;20044;-82
2023/03/07 06:38:45;;;;;;;12.70;2.30;;;2.30;19.20;;;;;;5067294;28;20087;-82
2023/03/07 06:41:11;;;;;;;9.00;1.58;;;2.40;17.80;;;;;;5044360;28;20182;-81
2023/03/07 06:43:37;;;;;;;9.80;1.33;;;2.20;39.70;;;;;;5062675;28;20052;-83
2023/03/07 06:46:03;;;;;;;7.38;1.38;;;2.20;62.10;;;;;;5064863;28;20052;-83
2023/03/07 06:48:29;;;;;;;14.95;1.92;;;2.20;73.60;;;;;;5063512;28;20059;-84
2023/03/07 06:50:55;;;;;;;10.38;1.38;;;2.10;90.10;;;;;;5054336;28;20115;-85
2023/03/07 06:53:21;;;;;;;14.60;3.55;;;2.10;95.40;;;;;;5037887;28;20044;-84
2023/03/07 06:55:50;;;;;;;18.80;6.30;;;2.10;98.50;;;;;;5041439;28;20050;-85
2023/03/07 06:58:17;;;;;;;11.98;2.78;;;2.10;99.90;;;;;;5055545;28;20469;-84
2023/03/07 07:00:43;;;;;;;17.67;2.95;;;2.10;99.90;;;;;;5042483;28;20401;-84
2023/03/07 07:03:12;;;;;;;8.77;1.40;;;2.10;99.90;;;;;;5049189;28;20053;-84
2023/03/07 07:05:39;;;;;;;11.40;2.83;;;2.10;99.90;;;;;;5049200;28;20438;-84
2023/03/07 07:08:04;;;;;;;11.70;2.67;;;2.10;99.90;;;;;;5046333;28;20405;-84
2023/03/07 07:10:30;;;;;;;10.10;1.40;;;2.10;99.90;;;;;;5032677;28;20114;-84
2023/03/07 07:12:56;;;;;;;10.35;2.63;;;2.10;99.90;;;;;;5051663;28;20476;-84
2023/03/07 07:15:25;;;;;;;8.30;2.50;;;2.20;99.90;;;;;;5049334;28;20534;-83
2023/03/07 07:17:51;;;;;;;10.68;1.42;;;2.10;99.90;;;;;;5044566;28;20057;-84
2023/03/07 07:20:18;;;;;;;7.93;2.55;;;2.20;99.90;;;;;;5052647;28;20406;-84
2023/03/07 07:22:44;;;;;;;14.00;1.80;;;2.10;99.90;;;;;;5051533;28;20056;-83
2023/03/07 07:25:10;;;;;;;11.77;2.95;;;2.10;99.90;;;;;;5068960;28;20052;-84
2023/03/07 07:27:36;;;;;;;7.47;2.28;;;2.10;99.90;;;;;;5048191;28;20033;-86
2023/03/07 07:30:03;;;;;;;8.57;2.00;;;2.10;99.90;;;;;;5042984;28;20375;-84
2023/03/07 07:32:29;;;;;;;9.95;1.70;;;2.10;99.90;;;;;;5035206;28;20774;-83
2023/03/07 07:34:54;;;;;;;7.43;2.28;;;2.10;99.90;;;;;;5048256;28;20124;-83
2023/03/07 07:37:20;;;;;;;8.75;2.85;;;2.10;99.90;;;;;;5049755;28;20121;-83
2023/03/07 07:39:48;;;;;;;13.80;5.18;;;2.20;99.90;;;;;;5048100;28;20072;-84
2023/03/07 07:42:14;;;;;;;6.50;1.10;;;2.20;99.90;;;;;;5049933;28;20094;-83
2023/03/07 07:44:40;;;;;;;10.10;2.17;;;2.20;99.90;;;;;;5069933;28;20076;-85
2023/03/07 07:47:06;;;;;;;7.03;1.67;;;2.20;99.90;;;;;;5047689;28;20080;-84
2023/03/07 07:49:31;;;;;;;4.45;1.60;;;2.20;99.90;;;;;;5068712;28;20037;-84
2023/03/07 07:51:57;;;;;;;7.40;1.70;;;2.20;99.90;;;;;;5051329;28;20056;-84
2023/03/07 07:54:23;;;;;;;8.93;1.77;;;2.30;99.90;;;;;;5041313;28;20041;-84
2023/03/07 07:56:48;;;;;;;7.82;1.92;;;2.30;99.90;;;;;;5060140;28;20048;-85
2023/03/07 07:59:14;;;;;;;6.63;0.90;;;2.30;99.90;;;;;;5048521;28;20136;-84
2023/03/07 08:01:40;;;;;;;12.98;2.63;;;2.30;99.90;;;;;;5015744;28;20051;-85
2023/03/07 08:04:06;;;;;;;7.13;1.15;;;2.40;99.90;;;;;;5048233;28;20041;-84
2023/03/07 08:06:31;;;;;;;6.57;1.60;;;2.40;99.90;;;;;;5052946;28;20075;-84
2023/03/07 08:08:58;;;;;;;4.25;1.58;;;2.30;99.90;;;;;;5065946;28;20044;-84
2023/03/07 08:11:25;;;;;;;7.00;1.13;;;2.30;99.90;;;;;;5048515;28;20048;-83
2023/03/07 08:13:50;;;;;;;7.38;1.23;;;2.30;99.90;;;;;;5041344;28;20109;-83
2023/03/07 08:16:18;;;;;;;5.03;0.70;;;2.30;96.20;;;;;;5034535;28;20032;-84
2023/03/07 08:18:50;;;;;;;6.43;2.50;;;2.20;99.90;;;;;;5050811;28;20065;-85
2023/03/07 08:21:16;;;;;;;3.10;0.40;;;2.20;99.90;;;;;;5050964;28;20052;-82
2023/03/07 08:23:41;;;;;;;4.50;0.63;;;2.20;99.90;;;;;;5068459;28;20056;-84
2023/03/07 08:26:09;;;;;;;8.80;0.60;;;2.10;99.90;;;;;;5016088;28;20096;-84
2023/03/07 08:28:36;;;;;;;7.47;1.02;;;2.20;99.90;;;;;;5043464;28;20052;-84
2023/03/07 08:31:06;;;;;;;5.03;1.50;;;2.20;99.90;;;;;;5054113;28;20577;-83
2023/03/07 08:33:32;;;;;;;2.80;0.50;;;2.30;99.90;;;;;;5055232;28;20079;-83
2023/03/07 08:35:58;;;;;;;4.55;0.60;;;2.30;99.90;;;;;;5060504;28;20037;-83
2023/03/07 08:38:25;;;;;;;4.05;0.63;;;2.40;99.90;;;;;;5047826;28;20041;-85
2023/03/07 08:40:51;;;;;;;4.82;0.70;;;2.30;99.90;;;;;;5001628;28;20469;-83
2023/03/07 08:43:16;;;;;;;5.88;0.70;;;2.30;99.90;;;;;;5060952;28;20044;-84
2023/03/07 08:45:42;;;;;;;3.75;0.68;;;2.40;99.60;;;;;;5031752;28;20044;-83
2023/03/07 08:48:09;;;;;;;3.22;0.82;;;2.40;99.90;;;;;;5041114;28;20842;-84
2023/03/07 08:50:35;;;;;;;6.35;0.65;;;2.60;99.90;;;;;;5050760;28;20059;-83
2023/03/07 08:53:01;;;;;;;2.42;0.60;;;2.60;99.90;;;;;;5047454;28;20049;-84
2023/03/07 08:55:27;;;;;;;2.90;0.90;;;2.60;99.90;;;;;;5060315;28;20048;-83
2023/03/07 08:57:52;;;;;;;3.30;0.52;;;2.70;99.90;;;;;;5034048;28;20583;-84
2023/03/07 09:00:18;;;;;;;5.15;2.33;;;2.80;90.10;;;;;;5050619;28;20044;-83
2023/03/07 09:02:45;;;;;;;5.22;0.90;;;2.80;94.30;;;;;;5054871;28;20057;-83
2023/03/07 09:05:11;;;;;;;3.88;0.75;;;2.90;95.00;;;;;;5067071;28;20048;-83
2023/03/07 09:07:37;;;;;;;8.13;2.60;;;3.00;96.40;;;;;;5067018;28;20056;-84
2023/03/07 09:10:04;;;;;;;5.20;1.08;;;3.10;97.70;;;;;;5041857;28;20087;-84
2023/03/07 09:12:31;;;;;;;5.97;1.00;;;3.20;99.40;;;;;;5047859;28;20052;-84
2023/03/07 09:14:57;;;;;;;9.63;1.33;;;3.30;96.20;;;;;;5052587;28;20063;-84
2023/03/07 09:17:23;;;;;;;9.10;2.15;;;3.20;58.50;;;;;;5050569;28;20497;-84
2023/03/07 09:19:49;;;;;;;6.47;2.55;;;3.30;49.10;;;;;;5066593;28;20078;-84
2023/03/07 09:22:15;;;;;;;7.90;1.55;;;3.20;26.30;;;;;;5037442;28;20045;-85
2023/03/07 09:24:41;;;;;;;8.50;1.30;;;3.10;1.00;;;;;;5065985;28;20049;-84
2023/03/07 09:27:07;;;;;;;5.82;1.52;;;3.00;3.60;;;;;;5037808;28;20052;-84
2023/03/07 09:29:32;;;;;;;5.80;1.05;;;2.90;1.00;;;;;;5049849;28;20567;-84
2023/03/07 09:32:01;;;;;;;4.97;0.70;;;2.90;5.00;;;;;;5047543;28;20056;-85
2023/03/07 09:34:26;;;;;;;4.18;0.65;;;2.90;1.00;;;;;;5067065;28;20110;-84
2023/03/07 09:36:52;;;;;;;7.03;0.80;;;2.70;1.00;;;;;;5037037;28;20053;-85
2023/03/07 09:39:18;;;;;;;5.78;1.00;;;2.50;1.00;;;;;;5033375;28;20401;-83
2023/03/07 09:41:55;;;;;;;5.53;0.82;;;1.90;1.00;;;;;;5066762;28;20123;-85
2023/03/07 09:44:40;;;;;;;5.03;1.10;;;1.50;38.50;;;;;;5067598;28;20056;-83
2023/03/07 09:47:44;;;;;;;7.45;3.80;;;1.20;76.80;;;;;;5066039;28;20048;-83
2023/03/07 09:50:21;;;;;;;6.15;1.45;;;1.00;97.80;;;;;;5066680;28;20055;-83
2023/03/07 09:52:48;;;;;;;5.57;1.33;;;1.00;99.90;;;;;;5054318;28;20056;-82
2023/03/07 09:55:17;;;;;;;9.57;1.30;;;0.90;99.90;;;;;;5040224;28;20114;-83
2023/03/07 09:57:54;;;;;;;5.20;1.70;;;1.00;99.90;;;;;;5071677;28;20489;-82
2023/03/07 10:00:39;;;;;;;8.07;1.95;;;1.00;99.90;;;;;;5057486;28;20052;-83
2023/03/07 10:03:07;;;;;;;6.43;1.60;;;1.30;99.90;;;;;;5066993;28;20139;-82
2023/03/07 10:05:47;;;;;;;5.20;1.08;;;1.20;99.90;;;;;;5051319;28;20056;-82
2023/03/07 10:08:25;;;;;;;8.00;2.33;;;1.30;99.90;;;;;;5051547;28;20052;-83
2023/03/07 10:11:04;;;;;;;9.10;2.05;;;1.40;99.90;;;;;;5064631;28;20440;-83
2023/03/07 10:13:42;;;;;;;9.43;1.70;;;1.50;99.90;;;;;;5051251;28;20098;-84
2023/03/07 10:16:50;;;;;;;9.10;2.10;;;1.60;99.90;;;;;;5050216;28;20041;-83
2023/03/07 10:20:05;;;;;;;9.98;2.35;;;1.90;99.90;;;;;;5050208;28;20049;-84
2023/03/07 10:22:46;;;;;;;8.30;1.30;;;2.10;99.90;;;;;;4976909;28;20137;-85
2023/03/07 10:25:17;;;;;;;8.18;1.17;;;2.30;99.90;;;;;;4976511;28;20492;-85
2023/03/07 10:27:46;;;;;;;11.73;2.17;;;2.50;99.90;;;;;;5021363;28;20064;-85
2023/03/07 10:30:17;;;;;;;6.93;1.27;;;2.70;99.90;;;;;;5062237;28;20068;-84
2023/03/07 10:32:54;;;;;;;6.20;1.30;;;2.70;99.90;;;;;;5057925;28;20052;-84
2023/03/07 10:35:33;;;;;;;11.48;1.88;;;2.80;99.90;;;;;;5057156;28;20041;-84
2023/03/07 10:38:01;;;;;;;8.43;2.08;;;3.00;99.90;;;;;;5060969;28;20049;-84
2023/03/07 10:40:39;;;;;;;4.35;1.23;;;3.20;99.90;;;;;;5063664;28;20044;-85
2023/03/07 10:43:05;;;;;;;12.70;2.03;;;3.30;99.90;;;;;;5050745;28;20057;-85
2023/03/07 10:45:32;;;;;;;9.02;2.00;;;3.50;99.90;;;;;;5057124;28;20056;-85
2023/03/07 10:48:04;;;;;;;12.52;2.92;;;3.70;99.90;;;;;;5054036;28;20044;-85
2023/03/07 10:50:51;;;;;;;8.63;3.13;;;3.90;99.90;;;;;;5054225;28;20071;-86
2023/03/07 10:53:30;;;;;;;8.30;1.42;;;4.00;99.90;;;;;;5052567;28;20056;-85
2023/03/07 10:56:08;;;;;;;7.03;1.70;;;4.00;95.80;;;;;;5045695;28;20127;-85
2023/03/07 10:58:34;;;;;;;10.90;2.33;;;4.10;72.20;;;;;;5036232;28;20057;-85
2023/03/07 11:01:06;;;;;;;8.93;1.25;;;4.10;62.50;;;;;;5051089;28;20048;-84
2023/03/07 11:03:37;;;;;;;13.13;2.15;;;4.20;44.60;;;;;;5052744;28;20470;-85
2023/03/07 11:06:04;;;;;;;8.15;1.60;;;4.30;50.40;;;;;;5044375;28;20076;-85
2023/03/07 11:08:32;;;;;;;9.77;2.38;;;4.40;13.10;;;;;;5069121;28;20044;-85
2023/03/07 11:11:00;;;;;;;9.02;1.10;;;4.50;19.60;;;;;;5057831;28;20105;-85
2023/03/07 11:13:27;;;;;;;8.82;1.63;;;4.80;29.10;;;;;;5053218;28;20159;-86
2023/03/07 11:16:20;;;;;;;5.57;1.15;;;5.00;18.00;;;;;;5049548;28;20102;-87
2023/03/07 11:18:46;;;;;;;7.78;1.27;;;5.00;1.00;;;;;;5059906;28;20100;-85
2023/03/07 11:21:35;;;;;;;7.72;1.27;;;5.00;1.00;;;;;;5052328;28;20048;-86
2023/03/07 11:24:15;;;;;;;6.97;1.70;;;5.00;1.00;;;;;;5050445;28;20048;-86
2023/03/07 11:26:41;;;;;;;11.40;1.35;;;5.00;1.00;;;;;;5056460;28;20056;-86
2023/03/07 11:29:12;;;;;;;5.80;0.98;;;4.90;1.00;;;;;;5030910;28;20064;-86
2023/03/07 11:31:44;;;;;;;4.68;1.48;;;5.00;1.00;;;;;;5059792;28;20479;-86
2023/03/07 11:34:21;;;;;;;14.35;1.55;;;5.30;1.00;;;;;;5062277;28;20529;-87
2023/03/07 11:36:53;;;;;;;5.47;1.77;;;5.30;1.00;;;;;;5045289;28;20093;-87
2023/03/07 11:39:49;;;;;;;7.78;1.38;;;5.30;1.00;;;;;;5049211;28;20076;-86
2023/03/07 11:42:27;;;;;;;10.00;1.88;;;5.20;1.00;;;;;;5033062;28;20412;-87
2023/03/07 11:45:02;;;;;;;12.07;2.10;;;4.90;99.90;;;;;;5049467;28;20139;-87
2023/03/07 11:47:34;;;;;;;7.68;1.30;;;4.90;1.00;;;;;;5039373;28;20534;-87
2023/03/07 11:50:28;;;;;;;8.13;1.30;;;4.90;99.90;;;;;;5065690;28;20136;-87
2023/03/07 11:53:12;;;;;;;5.00;1.40;;;5.00;1.00;;;;;;5049429;28;20199;-88
2023/03/07 11:55:56;;;;;;;5.30;1.20;;;5.00;99.90;;;;;;5057402;28;20051;-87
2023/03/07 11:58:21;;;;;;;7.68;0.98;;;5.00;99.90;;;;;;5051115;28;20500;-87
2023/03/07 12:01:12;;;;;;;8.10;2.17;;;5.00;1.00;;;;;;5049347;28;20045;-87
2023/03/07 12:04:10;;;;;;;5.78;1.23;;;4.60;99.90;;;;;;5053489;28;20512;-87
2023/03/07 12:07:14;;;;;;;4.88;1.48;;;4.40;1.00;;;;;;5047557;28;20040;-88
2023/03/07 12:09:50;;;;;;;4.82;1.40;;;4.30;1.00;;;;;;5048596;28;20084;-87
2023/03/07 12:12:37;;;;;;;;;;;4.30;1.00;;;;;;5049296;28;20045;-88
2023/03/07 12:15:21;;;;;;;3.03;0.87;;;4.30;1.00;;;;;;5062068;28;19928;-88
2023/03/07 12:18:30;;;;;;;4.50;0.77;;;4.30;1.00;;;;;;5048612;28;20064;-87
2023/03/07 12:21:17;;;;;;;8.82;1.83;;;4.40;1.00;;;;;;5045794;28;20053;-88
2023/03/07 12:23:47;;;;;;;6.13;1.73;;;4.60;1.00;;;;;;5044158;28;20050;-88
2023/03/07 12:26:36;;;;;;;5.95;1.58;;;4.80;99.90;;;;;;5048539;28;20048;-88
2023/03/07 12:29:18;;;;;;;7.07;0.90;;;5.00;1.00;;;;;;5044966;28;20044;-89
2023/03/07 12:31:49;;;;;;;8.93;1.00;;;5.20;99.90;;;;;;5060497;28;20044;-88
2023/03/07 12:34:33;;;;;;;6.93;1.27;;;5.30;99.90;;;;;;5048644;28;20132;-88
2023/03/07 12:37:05;;;;;;;10.35;1.58;;;5.30;99.90;;;;;;5061592;28;20041;-88
2023/03/07 12:39:44;;;;;;;5.68;1.25;;;5.40;1.00;;;;;;5054844;28;20102;-88
2023/03/07 12:42:28;;;;;;;2.65;0.77;;;5.20;99.90;;;;;;5048242;28;20485;-88
2023/03/07 12:45:06;;;;;;;5.65;1.17;;;5.10;99.90;;;;;;5032303;28;20135;-88
2023/03/07 12:47:50;;;;;;;10.10;1.23;;;5.10;1.00;;;;;;5064303;28;20041;-87
2023/03/07 12:50:44;;;;;;;5.43;1.17;;;5.20;1.00;;;;;;5048473;28;20052;-89
2023/03/07 12:53:31;;;;;;;8.73;1.20;;;5.20;1.00;;;;;;5050238;28;20178;-89
2023/03/07 12:56:11;;;;;;;7.13;1.40;;;5.30;99.90;;;;;;5041617;28;20045;-89
2023/03/07 12:58:55;;;;;;;13.32;2.55;;;5.20;99.90;;;;;;5068475;28;20036;-89
2023/03/07 13:01:30;;;;;;;5.95;1.20;;;5.30;99.90;;;;;;5051799;28;20049;-87
2023/03/07 13:04:16;;;;;;;5.95;2.15;;;5.30;99.90;;;;;;5042639;28;20072;-90
2023/03/07 13:06:44;;;;;;;5.03;1.42;;;5.20;99.90;;;;;;5062324;28;20059;-88
2023/03/07 13:09:22;;;;;;;6.13;1.00;;;5.20;99.90;;;;;;5061518;28;20197;-88